sensor_id;sensor_type;location;lat;lon;timestamp;pressure;altitude;pressure_sealevel;temperature;humidity
33161;BME280;19522;45.656;11.302;2023-02-12T00:01:41;99890.56;;;2.14;59.52
33161;BME280;19522;45.656;11.302;2023-02-12T00:04:07;99894.53;;;1.80;60.70
33161;BME280;19522;45.656;11.302;2023-02-12T00:06:37;99891.41;;;1.59;61.21
33161;BME280;19522;45.656;11.302;2023-02-12T00:09:03;99900.94;;;1.48;62.14
33161;BME280;19522;45.656;11.302;2023-02-12T00:11:29;99876.84;;;1.63;62.34
33161;BME280;19522;45.656;11.302;2023-02-12T00:13:55;99883.34;;;1.88;60.83
33161;BME280;19522;45.656;11.302;2023-02-12T00:16:23;99848.06;;;1.52;61.67
33161;BME280;19522;45.656;11.302;2023-02-12T00:18:53;99874.56;;;1.57;61.46
33161;BME280;19522;45.656;11.302;2023-02-12T00:21:19;99889.19;;;1.80;61.19
33161;BME280;19522;45.656;11.302;2023-02-12T00:23:45;99852.91;;;1.74;61.45
33161;BME280;19522;45.656;11.302;2023-02-12T00:26:14;99879.66;;;2.03;60.32
33161;BME280;19522;45.656;11.302;2023-02-12T00:28:39;99882.34;;;2.03;60.13
33161;BME280;19522;45.656;11.302;2023-02-12T00:31:11;99886.56;;;1.93;59.89
33161;BME280;19522;45.656;11.302;2023-02-12T00:33:37;99880.75;;;1.86;59.80
33161;BME280;19522;45.656;11.302;2023-02-12T00:36:04;99886.78;;;1.75;61.17
33161;BME280;19522;45.656;11.302;2023-02-12T00:38:30;99863.84;;;1.57;61.42
33161;BME280;19522;45.656;11.302;2023-02-12T00:40:55;99884.59;;;1.67;61.60
33161;BME280;19522;45.656;11.302;2023-02-12T00:43:21;99871.66;;;1.74;60.36
33161;BME280;19522;45.656;11.302;2023-02-12T00:45:46;99879.31;;;1.95;59.38
33161;BME280;19522;45.656;11.302;2023-02-12T00:48:13;99882.00;;;1.80;59.90
33161;BME280;19522;45.656;11.302;2023-02-12T00:50:39;99878.94;;;1.86;60.06
33161;BME280;19522;45.656;11.302;2023-02-12T00:53:07;99873.34;;;2.04;59.67
33161;BME280;19522;45.656;11.302;2023-02-12T00:55:33;99874.50;;;2.00;59.76
33161;BME280;19522;45.656;11.302;2023-02-12T00:57:59;99851.91;;;2.04;58.83
33161;BME280;19522;45.656;11.302;2023-02-12T01:00:25;99860.78;;;2.05;59.37
33161;BME280;19522;45.656;11.302;2023-02-12T01:02:50;99857.13;;;2.20;58.95
33161;BME280;19522;45.656;11.302;2023-02-12T01:05:16;99853.03;;;2.14;58.60
33161;BME280;19522;45.656;11.302;2023-02-12T01:07:42;99858.88;;;2.07;58.95
33161;BME280;19522;45.656;11.302;2023-02-12T01:10:08;99840.44;;;2.02;58.29
33161;BME280;19522;45.656;11.302;2023-02-12T01:12:33;99858.63;;;1.97;58.75
33161;BME280;19522;45.656;11.302;2023-02-12T01:14:59;99825.38;;;1.72;58.82
33161;BME280;19522;45.656;11.302;2023-02-12T01:17:24;99848.69;;;1.84;59.48
33161;BME280;19522;45.656;11.302;2023-02-12T01:19:50;99771.06;;;1.41;59.81
33161;BME280;19522;45.656;11.302;2023-02-12T01:22:15;99845.00;;;2.14;59.00
33161;BME280;19522;45.656;11.302;2023-02-12T01:24:41;99845.94;;;2.13;58.74
33161;BME280;19522;45.656;11.302;2023-02-12T01:27:06;99841.44;;;1.86;59.56
33161;BME280;19522;45.656;11.302;2023-02-12T01:29:32;99810.00;;;1.47;60.07
33161;BME280;19522;45.656;11.302;2023-02-12T01:31:57;99839.34;;;1.63;59.51
33161;BME280;19522;45.656;11.302;2023-02-12T01:34:23;99809.16;;;1.46;59.30
33161;BME280;19522;45.656;11.302;2023-02-12T01:36:48;99776.94;;;1.19;59.37
33161;BME280;19522;45.656;11.302;2023-02-12T01:39:14;99824.44;;;1.44;59.78
33161;BME280;19522;45.656;11.302;2023-02-12T01:41:42;99822.44;;;1.48;60.53
33161;BME280;19522;45.656;11.302;2023-02-12T01:46:38;99787.91;;;1.58;60.51
33161;BME280;19522;45.656;11.302;2023-02-12T01:49:08;99815.53;;;1.73;60.48
33161;BME280;19522;45.656;11.302;2023-02-12T01:51:35;99793.41;;;1.69;59.80
33161;BME280;19522;45.656;11.302;2023-02-12T01:54:04;99818.09;;;1.74;59.73
33161;BME280;19522;45.656;11.302;2023-02-12T01:56:32;99811.06;;;1.59;60.24
33161;BME280;19522;45.656;11.302;2023-02-12T01:58:58;99806.34;;;1.62;60.65
33161;BME280;19522;45.656;11.302;2023-02-12T02:01:28;99798.50;;;1.59;60.58
33161;BME280;19522;45.656;11.302;2023-02-12T02:03:59;99820.50;;;1.64;60.46
33161;BME280;19522;45.656;11.302;2023-02-12T02:06:34;99817.81;;;1.64;60.26
33161;BME280;19522;45.656;11.302;2023-02-12T02:09:01;99755.53;;;1.33;58.39
33161;BME280;19522;45.656;11.302;2023-02-12T02:11:27;99805.25;;;1.79;56.67
33161;BME280;19522;45.656;11.302;2023-02-12T02:14:11;99810.47;;;1.68;57.14
33161;BME280;19522;45.656;11.302;2023-02-12T02:36:43;99789.09;;;1.39;60.71
33161;BME280;19522;45.656;11.302;2023-02-12T02:41:58;99779.00;;;1.57;60.29
33161;BME280;19522;45.656;11.302;2023-02-12T02:44:34;99787.44;;;1.51;60.54
33161;BME280;19522;45.656;11.302;2023-02-12T02:47:04;99787.50;;;1.49;60.16
33161;BME280;19522;45.656;11.302;2023-02-12T02:49:38;99783.59;;;1.55;60.39
33161;BME280;19522;45.656;11.302;2023-02-12T02:52:09;99781.06;;;1.39;60.81
33161;BME280;19522;45.656;11.302;2023-02-12T02:54:43;99792.41;;;1.43;61.14
33161;BME280;19522;45.656;11.302;2023-02-12T02:57:29;99774.06;;;1.36;61.28
33161;BME280;19522;45.656;11.302;2023-02-12T03:00:02;99791.97;;;1.78;60.58
33161;BME280;19522;45.656;11.302;2023-02-12T03:02:35;99791.00;;;1.79;60.46
33161;BME280;19522;45.656;11.302;2023-02-12T03:05:20;99794.72;;;1.91;60.32
33161;BME280;19522;45.656;11.302;2023-02-12T03:08:18;99784.88;;;1.77;60.25
33161;BME280;19522;45.656;11.302;2023-02-12T03:10:52;99775.41;;;1.85;59.93
33161;BME280;19522;45.656;11.302;2023-02-12T03:13:33;99759.63;;;1.81;59.41
33161;BME280;19522;45.656;11.302;2023-02-12T03:18:45;99776.84;;;1.77;58.96
33161;BME280;19522;45.656;11.302;2023-02-12T03:21:21;99785.59;;;1.66;59.50
33161;BME280;19522;45.656;11.302;2023-02-12T03:23:54;99786.44;;;1.66;59.92
33161;BME280;19522;45.656;11.302;2023-02-12T03:26:27;99776.97;;;1.61;60.19
33161;BME280;19522;45.656;11.302;2023-02-12T03:28:56;99775.59;;;1.82;59.60
33161;BME280;19522;45.656;11.302;2023-02-12T03:36:51;99772.22;;;1.51;60.78
33161;BME280;19522;45.656;11.302;2023-02-12T03:40:13;99786.50;;;1.79;60.69
33161;BME280;19522;45.656;11.302;2023-02-12T03:43:08;99786.63;;;1.78;60.73
33161;BME280;19522;45.656;11.302;2023-02-12T03:46:00;99793.03;;;1.61;60.98
33161;BME280;19522;45.656;11.302;2023-02-12T03:48:31;99796.69;;;1.60;60.69
33161;BME280;19522;45.656;11.302;2023-02-12T03:51:20;99793.72;;;1.64;60.58
33161;BME280;19522;45.656;11.302;2023-02-12T03:53:45;99783.22;;;1.47;60.97
33161;BME280;19522;45.656;11.302;2023-02-12T03:56:19;99786.19;;;1.57;61.08
33161;BME280;19522;45.656;11.302;2023-02-12T03:58:46;99790.84;;;1.67;61.01
33161;BME280;19522;45.656;11.302;2023-02-12T04:01:15;99784.72;;;1.65;60.63
33161;BME280;19522;45.656;11.302;2023-02-12T04:03:41;99777.56;;;1.51;60.92
33161;BME280;19522;45.656;11.302;2023-02-12T04:06:24;99791.44;;;1.58;61.19
33161;BME280;19522;45.656;11.302;2023-02-12T04:08:51;99774.72;;;1.40;60.82
33161;BME280;19522;45.656;11.302;2023-02-12T04:11:28;99767.56;;;1.26;62.14
33161;BME280;19522;45.656;11.302;2023-02-12T04:16:46;99760.38;;;1.41;61.23
33161;BME280;19522;45.656;11.302;2023-02-12T04:19:18;99784.84;;;1.49;60.22
33161;BME280;19522;45.656;11.302;2023-02-12T04:24:30;99763.91;;;1.27;61.87
33161;BME280;19522;45.656;11.302;2023-02-12T04:27:16;99776.84;;;1.35;62.17
33161;BME280;19522;45.656;11.302;2023-02-12T04:32:21;99769.72;;;1.63;61.96
33161;BME280;19522;45.656;11.302;2023-02-12T04:34:52;99767.41;;;1.71;61.31
33161;BME280;19522;45.656;11.302;2023-02-12T04:37:25;99751.38;;;1.42;61.96
33161;BME280;19522;45.656;11.302;2023-02-12T04:39:57;99741.25;;;1.47;61.96
33161;BME280;19522;45.656;11.302;2023-02-12T04:42:27;99754.44;;;1.50;61.58
33161;BME280;19522;45.656;11.302;2023-02-12T04:44:52;99687.13;;;1.00;60.69
33161;BME280;19522;45.656;11.302;2023-02-12T04:47:18;99752.31;;;1.55;60.68
33161;BME280;19522;45.656;11.302;2023-02-12T04:49:43;99719.59;;;1.23;61.54
33161;BME280;19522;45.656;11.302;2023-02-12T04:52:09;99742.03;;;1.20;62.49
33161;BME280;19522;45.656;11.302;2023-02-12T04:54:35;99744.16;;;1.15;62.92
33161;BME280;19522;45.656;11.302;2023-02-12T04:57:00;99761.75;;;1.19;63.50
33161;BME280;19522;45.656;11.302;2023-02-12T04:59:26;99738.41;;;0.92;64.01
33161;BME280;19522;45.656;11.302;2023-02-12T05:01:51;99769.38;;;1.26;63.96
33161;BME280;19522;45.656;11.302;2023-02-12T05:04:17;99761.53;;;1.37;63.40
33161;BME280;19522;45.656;11.302;2023-02-12T05:06:44;99761.72;;;1.48;62.87
33161;BME280;19522;45.656;11.302;2023-02-12T05:09:16;99751.59;;;1.39;62.72
33161;BME280;19522;45.656;11.302;2023-02-12T05:11:42;99763.34;;;1.36;62.58
33161;BME280;19522;45.656;11.302;2023-02-12T05:14:07;99746.94;;;1.14;63.10
33161;BME280;19522;45.656;11.302;2023-02-12T05:16:33;99757.44;;;1.17;63.37
33161;BME280;19522;45.656;11.302;2023-02-12T05:18:58;99751.78;;;1.21;63.62
33161;BME280;19522;45.656;11.302;2023-02-12T05:21:24;99730.28;;;1.08;63.80
33161;BME280;19522;45.656;11.302;2023-02-12T05:23:49;99721.78;;;1.16;63.53
33161;BME280;19522;45.656;11.302;2023-02-12T05:26:19;99756.19;;;1.37;63.38
33161;BME280;19522;45.656;11.302;2023-02-12T05:28:46;99737.75;;;1.32;63.25
33161;BME280;19522;45.656;11.302;2023-02-12T05:31:15;99746.06;;;1.13;63.71
33161;BME280;19522;45.656;11.302;2023-02-12T05:33:42;99690.09;;;0.67;64.41
33161;BME280;19522;45.656;11.302;2023-02-12T05:36:11;99772.84;;;0.99;65.13
33161;BME280;19522;45.656;11.302;2023-02-12T05:38:37;99772.63;;;1.02;64.83
33161;BME280;19522;45.656;11.302;2023-02-12T05:41:11;99783.34;;;1.16;64.37
33161;BME280;19522;45.656;11.302;2023-02-12T05:43:37;99794.59;;;0.92;64.65
33161;BME280;19522;45.656;11.302;2023-02-12T05:46:04;99793.47;;;1.26;64.06
33161;BME280;19522;45.656;11.302;2023-02-12T05:48:30;99787.53;;;1.20;64.24
33161;BME280;19522;45.656;11.302;2023-02-12T05:51:06;99798.44;;;1.32;63.61
33161;BME280;19522;45.656;11.302;2023-02-12T05:53:32;99776.44;;;1.12;63.84
33161;BME280;19522;45.656;11.302;2023-02-12T05:58:40;99815.44;;;0.87;64.70
33161;BME280;19522;45.656;11.302;2023-02-12T06:01:16;99807.19;;;0.76;65.22
33161;BME280;19522;45.656;11.302;2023-02-12T06:03:42;99818.44;;;0.67;65.65
33161;BME280;19522;45.656;11.302;2023-02-12T06:06:08;99830.31;;;0.77;65.85
33161;BME280;19522;45.656;11.302;2023-02-12T06:08:34;99734.97;;;0.17;65.58
33161;BME280;19522;45.656;11.302;2023-02-12T06:11:02;99831.25;;;0.76;65.99
33161;BME280;19522;45.656;11.302;2023-02-12T06:13:29;99841.72;;;1.09;64.98
33161;BME280;19522;45.656;11.302;2023-02-12T06:15:55;99837.34;;;1.23;64.35
33161;BME280;19522;45.656;11.302;2023-02-12T06:18:20;99817.72;;;0.93;64.76
33161;BME280;19522;45.656;11.302;2023-02-12T06:20:46;99848.13;;;1.07;64.91
33161;BME280;19522;45.656;11.302;2023-02-12T06:23:11;99826.31;;;0.84;65.16
33161;BME280;19522;45.656;11.302;2023-02-12T06:25:37;99846.13;;;0.96;65.39
33161;BME280;19522;45.656;11.302;2023-02-12T06:28:03;99856.13;;;0.92;65.47
33161;BME280;19522;45.656;11.302;2023-02-12T06:30:28;99851.19;;;1.01;65.63
33161;BME280;19522;45.656;11.302;2023-02-12T06:32:56;99842.00;;;0.90;65.57
33161;BME280;19522;45.656;11.302;2023-02-12T06:35:21;99855.00;;;0.97;65.57
33161;BME280;19522;45.656;11.302;2023-02-12T06:37:47;99822.72;;;1.00;65.01
33161;BME280;19522;45.656;11.302;2023-02-12T06:40:13;99873.47;;;1.45;63.78
33161;BME280;19522;45.656;11.302;2023-02-12T06:42:38;99860.78;;;1.34;63.69
33161;BME280;19522;45.656;11.302;2023-02-12T06:45:04;99873.47;;;1.30;63.89
33161;BME280;19522;45.656;11.302;2023-02-12T06:47:29;99862.56;;;1.19;64.35
33161;BME280;19522;45.656;11.302;2023-02-12T06:49:55;99877.91;;;0.86;65.40
33161;BME280;19522;45.656;11.302;2023-02-12T06:52:20;99865.34;;;0.72;66.37
33161;BME280;19522;45.656;11.302;2023-02-12T06:54:47;99805.09;;;0.36;66.62
33161;BME280;19522;45.656;11.302;2023-02-12T06:57:12;99873.25;;;0.74;66.89
33161;BME280;19522;45.656;11.302;2023-02-12T06:59:38;99881.16;;;0.91;66.88
33161;BME280;19522;45.656;11.302;2023-02-12T07:02:03;99877.91;;;0.86;67.24
33161;BME280;19522;45.656;11.302;2023-02-12T07:04:29;99893.94;;;0.86;67.59
33161;BME280;19522;45.656;11.302;2023-02-12T07:06:54;99896.69;;;1.01;66.97
33161;BME280;19522;45.656;11.302;2023-02-12T07:09:22;99862.03;;;0.83;67.00
33161;BME280;19522;45.656;11.302;2023-02-12T07:11:48;99894.00;;;1.01;66.75
33161;BME280;19522;45.656;11.302;2023-02-12T07:14:14;99904.69;;;1.01;67.16
33161;BME280;19522;45.656;11.302;2023-02-12T07:16:40;99894.00;;;1.15;66.95
33161;BME280;19522;45.656;11.302;2023-02-12T07:19:06;99894.63;;;1.35;66.20
33161;BME280;19522;45.656;11.302;2023-02-12T07:21:32;99903.72;;;1.32;64.97
33161;BME280;19522;45.656;11.302;2023-02-12T07:23:57;99898.63;;;1.28;63.80
33161;BME280;19522;45.656;11.302;2023-02-12T07:26:23;99901.47;;;1.24;63.37
33161;BME280;19522;45.656;11.302;2023-02-12T07:28:49;99904.16;;;1.24;63.82
33161;BME280;19522;45.656;11.302;2023-02-12T07:31:17;99900.22;;;1.16;64.60
33161;BME280;19522;45.656;11.302;2023-02-12T07:33:44;99914.53;;;1.45;64.31
33161;BME280;19522;45.656;11.302;2023-02-12T07:36:12;99924.66;;;1.54;64.28
33161;BME280;19522;45.656;11.302;2023-02-12T07:38:38;99932.09;;;1.49;63.41
33161;BME280;19522;45.656;11.302;2023-02-12T07:41:15;99934.50;;;1.54;62.97
33161;BME280;19522;45.656;11.302;2023-02-12T07:43:43;99938.16;;;1.67;62.89
33161;BME280;19522;45.656;11.302;2023-02-12T07:46:12;99931.16;;;1.65;62.88
33161;BME280;19522;45.656;11.302;2023-02-12T07:48:38;99922.75;;;1.57;63.04
33161;BME280;19522;45.656;11.302;2023-02-12T07:51:06;99932.13;;;1.93;62.09
33161;BME280;19522;45.656;11.302;2023-02-12T07:53:32;99933.09;;;2.06;60.81
33161;BME280;19522;45.656;11.302;2023-02-12T07:58:34;99899.16;;;2.20;57.86
33161;BME280;19522;45.656;11.302;2023-02-12T08:00:59;99913.50;;;2.33;57.83
33161;BME280;19522;45.656;11.302;2023-02-12T08:03:27;99937.69;;;2.73;57.75
33161;BME280;19522;45.656;11.302;2023-02-12T08:05:53;99928.22;;;2.68;58.43
33161;BME280;19522;45.656;11.302;2023-02-12T08:08:21;99915.31;;;2.60;59.17
33161;BME280;19522;45.656;11.302;2023-02-12T08:10:47;99937.00;;;2.97;58.71
33161;BME280;19522;45.656;11.302;2023-02-12T08:13:13;99917.72;;;3.05;58.08
33161;BME280;19522;45.656;11.302;2023-02-12T08:15:39;99921.72;;;3.25;57.51
33161;BME280;19522;45.656;11.302;2023-02-12T08:18:04;99908.59;;;3.20;57.16
33161;BME280;19522;45.656;11.302;2023-02-12T08:20:33;99897.22;;;3.30;56.62
33161;BME280;19522;45.656;11.302;2023-02-12T08:22:58;99911.63;;;3.41;56.70
33161;BME280;19522;45.656;11.302;2023-02-12T08:25:24;99914.97;;;3.58;56.81
33161;BME280;19522;45.656;11.302;2023-02-12T08:27:52;99917.78;;;3.69;56.86
33161;BME280;19522;45.656;11.302;2023-02-12T08:30:18;99907.97;;;3.81;56.80
33161;BME280;19522;45.656;11.302;2023-02-12T08:32:43;99906.00;;;3.96;56.69
33161;BME280;19522;45.656;11.302;2023-02-12T08:35:09;99913.28;;;4.07;56.33
33161;BME280;19522;45.656;11.302;2023-02-12T08:37:34;99909.69;;;4.32;54.99
33161;BME280;19522;45.656;11.302;2023-02-12T08:40:00;99909.97;;;4.41;54.49
33161;BME280;19522;45.656;11.302;2023-02-12T08:42:25;99896.44;;;4.42;54.60
33161;BME280;19522;45.656;11.302;2023-02-12T08:44:52;99911.28;;;4.59;54.33
33161;BME280;19522;45.656;11.302;2023-02-12T08:47:17;99909.19;;;4.76;53.73
33161;BME280;19522;45.656;11.302;2023-02-12T08:49:43;99888.03;;;4.82;53.47
33161;BME280;19522;45.656;11.302;2023-02-12T08:52:08;99904.41;;;5.15;52.39
33161;BME280;19522;45.656;11.302;2023-02-12T08:54:34;99904.72;;;5.35;51.68
33161;BME280;19522;45.656;11.302;2023-02-12T08:57:01;99898.16;;;5.61;51.22
33161;BME280;19522;45.656;11.302;2023-02-12T08:59:28;99890.94;;;5.85;50.22
33161;BME280;19522;45.656;11.302;2023-02-12T09:01:54;99891.91;;;6.18;48.74
33161;BME280;19522;45.656;11.302;2023-02-12T09:04:22;99881.09;;;6.41;48.42
33161;BME280;19522;45.656;11.302;2023-02-12T09:06:49;99880.59;;;6.79;47.13
33161;BME280;19522;45.656;11.302;2023-02-12T09:09:14;99873.75;;;7.17;46.81
33161;BME280;19522;45.656;11.302;2023-02-12T09:11:40;99867.84;;;7.76;45.33
33161;BME280;19522;45.656;11.302;2023-02-12T09:14:09;99868.63;;;8.38;43.57
33161;BME280;19522;45.656;11.302;2023-02-12T09:16:35;99864.69;;;9.01;41.77
33161;BME280;19522;45.656;11.302;2023-02-12T09:19:01;99861.97;;;9.69;40.03
33161;BME280;19522;45.656;11.302;2023-02-12T09:21:27;99862.63;;;10.46;39.19
33161;BME280;19522;45.656;11.302;2023-02-12T09:23:53;99857.44;;;11.07;37.84
33161;BME280;19522;45.656;11.302;2023-02-12T09:26:21;99855.38;;;11.80;36.32
33161;BME280;19522;45.656;11.302;2023-02-12T09:28:48;99857.69;;;12.44;34.62
33161;BME280;19522;45.656;11.302;2023-02-12T09:31:26;99860.50;;;13.10;33.30
33161;BME280;19522;45.656;11.302;2023-02-12T09:34:03;99854.19;;;13.67;32.19
33161;BME280;19522;45.656;11.302;2023-02-12T09:36:30;99839.09;;;14.28;30.38
33161;BME280;19522;45.656;11.302;2023-02-12T09:38:56;99840.13;;;14.90;28.28
33161;BME280;19522;45.656;11.302;2023-02-12T09:44:45;99858.63;;;13.68;29.62
33161;BME280;19522;45.656;11.302;2023-02-12T09:47:22;99882.03;;;13.46;30.93
33161;BME280;19522;45.656;11.302;2023-02-12T09:52:26;99890.22;;;14.11;29.88
33161;BME280;19522;45.656;11.302;2023-02-12T09:54:53;99885.28;;;13.42;29.80
33161;BME280;19522;45.656;11.302;2023-02-12T09:57:25;99851.47;;;13.34;30.30
33161;BME280;19522;45.656;11.302;2023-02-12T10:00:39;99910.28;;;13.29;29.32
33161;BME280;19522;45.656;11.302;2023-02-12T10:02:39;99895.31;;;14.54;29.43
33161;BME280;19522;45.656;11.302;2023-02-12T10:05:15;99911.22;;;15.36;27.98
33161;BME280;19522;45.656;11.302;2023-02-12T10:10:28;99921.59;;;15.64;26.80
33161;BME280;19522;45.656;11.302;2023-02-12T10:13:04;99920.53;;;15.88;28.42
33161;BME280;19522;45.656;11.302;2023-02-12T10:18:32;99918.94;;;16.39;25.86
33161;BME280;19522;45.656;11.302;2023-02-12T10:28:51;99901.97;;;16.35;26.17
33161;BME280;19522;45.656;11.302;2023-02-12T10:31:29;99909.94;;;17.19;25.45
33161;BME280;19522;45.656;11.302;2023-02-12T10:33:56;99909.00;;;15.55;24.83
33161;BME280;19522;45.656;11.302;2023-02-12T10:36:41;99913.28;;;16.77;25.69
33161;BME280;19522;45.656;11.302;2023-02-12T10:44:12;99930.16;;;16.29;25.09
33161;BME280;19522;45.656;11.302;2023-02-12T10:46:37;99929.03;;;15.32;25.17
33161;BME280;19522;45.656;11.302;2023-02-12T10:49:04;99931.59;;;15.34;25.47
33161;BME280;19522;45.656;11.302;2023-02-12T10:51:42;99946.41;;;15.39;25.30
33161;BME280;19522;45.656;11.302;2023-02-12T10:54:40;99950.97;;;15.01;26.79
33161;BME280;19522;45.656;11.302;2023-02-12T10:57:28;99966.28;;;14.47;26.63
33161;BME280;19522;45.656;11.302;2023-02-12T11:00:12;99965.22;;;15.19;26.91
33161;BME280;19522;45.656;11.302;2023-02-12T11:02:39;99967.75;;;15.44;26.72
33161;BME280;19522;45.656;11.302;2023-02-12T11:05:25;99969.72;;;15.35;26.32
33161;BME280;19522;45.656;11.302;2023-02-12T11:07:53;99966.38;;;15.02;26.10
33161;BME280;19522;45.656;11.302;2023-02-12T11:10:31;99971.13;;;15.31;27.26
33161;BME280;19522;45.656;11.302;2023-02-12T11:12:58;99975.94;;;14.98;26.96
33161;BME280;19522;45.656;11.302;2023-02-12T11:15:26;99966.28;;;14.39;28.05
33161;BME280;19522;45.656;11.302;2023-02-12T11:20:28;99978.84;;;13.34;28.41
33161;BME280;19522;45.656;11.302;2023-02-12T11:23:02;99964.34;;;13.99;28.54
33161;BME280;19522;45.656;11.302;2023-02-12T11:25:33;99974.66;;;14.85;27.34
33161;BME280;19522;45.656;11.302;2023-02-12T11:30:35;99986.44;;;14.46;27.48
33161;BME280;19522;45.656;11.302;2023-02-12T11:36:18;99987.88;;;14.65;24.58
33161;BME280;19522;45.656;11.302;2023-02-12T11:38:50;99969.75;;;14.80;23.71
33161;BME280;19522;45.656;11.302;2023-02-12T11:41:44;99960.16;;;14.37;23.18
33161;BME280;19522;45.656;11.302;2023-02-12T11:44:19;99995.97;;;14.50;24.56
33161;BME280;19522;45.656;11.302;2023-02-12T11:47:00;99996.28;;;14.63;25.08
33161;BME280;19522;45.656;11.302;2023-02-12T11:49:39;100004.66;;;14.70;24.87
33161;BME280;19522;45.656;11.302;2023-02-12T11:52:05;99993.28;;;14.90;25.04
33161;BME280;19522;45.656;11.302;2023-02-12T11:54:40;99992.50;;;15.04;25.04
33161;BME280;19522;45.656;11.302;2023-02-12T11:57:33;99992.28;;;15.14;25.22
33161;BME280;19522;45.656;11.302;2023-02-12T11:59:56;99979.25;;;14.45;25.73
33161;BME280;19522;45.656;11.302;2023-02-12T12:02:30;99962.81;;;14.53;25.96
33161;BME280;19522;45.656;11.302;2023-02-12T12:05:11;99979.88;;;15.26;25.20
33161;BME280;19522;45.656;11.302;2023-02-12T12:07:42;99979.31;;;15.08;24.79
33161;BME280;19522;45.656;11.302;2023-02-12T12:10:23;99985.47;;;15.56;24.84
33161;BME280;19522;45.656;11.302;2023-02-12T12:12:55;99949.16;;;15.16;24.26
33161;BME280;19522;45.656;11.302;2023-02-12T12:15:25;99970.75;;;15.11;25.01
33161;BME280;19522;45.656;11.302;2023-02-12T12:21:27;99963.59;;;15.95;23.31
33161;BME280;19522;45.656;11.302;2023-02-12T12:24:00;99976.28;;;16.11;24.42
33161;BME280;19522;45.656;11.302;2023-02-12T12:26:29;99981.19;;;16.15;23.35
33161;BME280;19522;45.656;11.302;2023-02-12T12:31:33;99985.75;;;16.68;22.75
33161;BME280;19522;45.656;11.302;2023-02-12T12:34:09;99981.56;;;16.72;22.94
33161;BME280;19522;45.656;11.302;2023-02-12T12:44:55;99980.72;;;16.12;23.08
33161;BME280;19522;45.656;11.302;2023-02-12T12:50:26;99989.56;;;17.40;21.23
33161;BME280;19522;45.656;11.302;2023-02-12T12:53:06;99994.63;;;18.44;21.77
33161;BME280;19522;45.656;11.302;2023-02-12T13:06:23;100014.03;;;19.06;17.95
33161;BME280;19522;45.656;11.302;2023-02-12T13:09:18;100012.06;;;18.22;18.57
33161;BME280;19522;45.656;11.302;2023-02-12T13:15:04;100017.97;;;16.21;19.05
33161;BME280;19522;45.656;11.302;2023-02-12T13:17:41;100022.75;;;17.67;19.60
33161;BME280;19522;45.656;11.302;2023-02-12T13:20:22;100025.44;;;17.39;18.67
33161;BME280;19522;45.656;11.302;2023-02-12T13:26:06;100030.25;;;16.70;19.80
33161;BME280;19522;45.656;11.302;2023-02-12T13:28:42;100036.41;;;16.87;19.52
33161;BME280;19522;45.656;11.302;2023-02-12T13:31:13;100030.81;;;17.10;19.93
33161;BME280;19522;45.656;11.302;2023-02-12T13:33:44;100044.44;;;17.04;19.67
33161;BME280;19522;45.656;11.302;2023-02-12T13:36:12;100031.66;;;15.60;19.79
33161;BME280;19522;45.656;11.302;2023-02-12T13:38:50;100041.09;;;15.25;19.82
33161;BME280;19522;45.656;11.302;2023-02-12T13:41:17;100039.19;;;15.81;20.32
33161;BME280;19522;45.656;11.302;2023-02-12T13:43:55;100054.78;;;16.72;19.83
33161;BME280;19522;45.656;11.302;2023-02-12T13:51:49;100059.50;;;15.40;20.26
33161;BME280;19522;45.656;11.302;2023-02-12T13:57:00;100052.38;;;14.99;20.51
33161;BME280;19522;45.656;11.302;2023-02-12T14:01:57;100052.84;;;15.11;21.63
33161;BME280;19522;45.656;11.302;2023-02-12T14:04:42;100056.50;;;15.26;20.12
33161;BME280;19522;45.656;11.302;2023-02-12T14:07:14;100057.00;;;15.85;19.44
33161;BME280;19522;45.656;11.302;2023-02-12T14:12:36;100069.50;;;16.41;19.80
33161;BME280;19522;45.656;11.302;2023-02-12T14:15:08;100062.66;;;16.22;19.01
33161;BME280;19522;45.656;11.302;2023-02-12T14:35:37;99996.00;;;14.42;22.68
33161;BME280;19522;45.656;11.302;2023-02-12T14:41:24;100060.44;;;13.86;24.32
33161;BME280;19522;45.656;11.302;2023-02-12T14:49:37;100063.91;;;13.21;25.28
33161;BME280;19522;45.656;11.302;2023-02-12T14:55:01;100070.69;;;12.66;25.86
33161;BME280;19522;45.656;11.302;2023-02-12T15:00:28;100074.06;;;12.33;26.34
33161;BME280;19522;45.656;11.302;2023-02-12T15:05:42;100061.47;;;12.32;26.78
33161;BME280;19522;45.656;11.302;2023-02-12T15:08:35;100079.91;;;12.46;27.33
33161;BME280;19522;45.656;11.302;2023-02-12T15:19:33;100076.75;;;11.89;27.96
33161;BME280;19522;45.656;11.302;2023-02-12T15:22:10;100058.09;;;11.76;28.01
33161;BME280;19522;45.656;11.302;2023-02-12T15:24:39;100078.09;;;11.84;27.81
33161;BME280;19522;45.656;11.302;2023-02-12T15:27:04;100081.72;;;11.93;27.90
33161;BME280;19522;45.656;11.302;2023-02-12T15:29:40;100079.88;;;11.94;28.49
33161;BME280;19522;45.656;11.302;2023-02-12T15:32:07;100083.06;;;12.07;28.05
33161;BME280;19522;45.656;11.302;2023-02-12T15:34:38;100055.06;;;11.97;28.89
33161;BME280;19522;45.656;11.302;2023-02-12T15:37:06;100062.75;;;11.65;29.06
33161;BME280;19522;45.656;11.302;2023-02-12T15:39:42;100079.19;;;11.56;29.64
33161;BME280;19522;45.656;11.302;2023-02-12T15:47:38;100083.06;;;11.89;29.73
33161;BME280;19522;45.656;11.302;2023-02-12T15:50:10;100093.78;;;11.91;29.69
33161;BME280;19522;45.656;11.302;2023-02-12T15:52:38;100089.59;;;11.78;30.09
33161;BME280;19522;45.656;11.302;2023-02-12T15:55:06;100095.38;;;11.75;30.19
33161;BME280;19522;45.656;11.302;2023-02-12T15:57:39;100099.88;;;11.84;29.71
33161;BME280;19522;45.656;11.302;2023-02-12T16:00:08;100095.19;;;11.95;29.46
33161;BME280;19522;45.656;11.302;2023-02-12T16:02:34;100099.78;;;11.94;29.59
33161;BME280;19522;45.656;11.302;2023-02-12T16:05:02;100088.44;;;11.63;29.96
33161;BME280;19522;45.656;11.302;2023-02-12T16:07:32;100090.78;;;11.58;29.77